sensor_id;sensor_type;location;lat;lon;timestamp;P1;durP1;ratioP1;P2;durP2;ratioP2
8317;SDS011;4196;48.926;8.964;2022-11-04T00:02:30;1.17;;;0.97;;
8317;SDS011;4196;48.926;8.964;2022-11-04T00:05:16;1.80;;;0.70;;
8317;SDS011;4196;48.926;8.964;2022-11-04T00:08:03;2.10;;;0.80;;
8317;SDS011;4196;48.926;8.964;2022-11-04T00:11:08;0.70;;;0.60;;
8317;SDS011;4196;48.926;8.964;2022-11-04T00:14:14;1.27;;;0.73;;
8317;SDS011;4196;48.926;8.964;2022-11-04T00:17:01;5.83;;;1.60;;
8317;SDS011;4196;48.926;8.964;2022-11-04T00:20:04;2.93;;;0.80;;
8317;SDS011;4196;48.926;8.964;2022-11-04T00:23:09;1.07;;;1.00;;
8317;SDS011;4196;48.926;8.964;2022-11-04T00:26:14;1.00;;;0.80;;
8317;SDS011;4196;48.926;8.964;2022-11-04T00:29:19;0.80;;;0.77;;
8317;SDS011;4196;48.926;8.964;2022-11-04T00:32:05;1.10;;;0.80;;
8317;SDS011;4196;48.926;8.964;2022-11-04T00:35:11;0.80;;;0.80;;
8317;SDS011;4196;48.926;8.964;2022-11-04T00:37:57;1.80;;;0.93;;
8317;SDS011;4196;48.926;8.964;2022-11-04T00:40:44;1.07;;;0.97;;
8317;SDS011;4196;48.926;8.964;2022-11-04T00:43:30;1.40;;;1.00;;
8317;SDS011;4196;48.926;8.964;2022-11-04T00:46:17;2.40;;;0.93;;
8317;SDS011;4196;48.926;8.964;2022-11-04T00:49:03;1.17;;;1.07;;
8317;SDS011;4196;48.926;8.964;2022-11-04T00:51:49;0.77;;;0.50;;
8317;SDS011;4196;48.926;8.964;2022-11-04T00:54:36;1.10;;;1.00;;
8317;SDS011;4196;48.926;8.964;2022-11-04T00:57:22;0.80;;;0.80;;
8317;SDS011;4196;48.926;8.964;2022-11-04T01:00:09;0.80;;;0.80;;
8317;SDS011;4196;48.926;8.964;2022-11-04T01:02:55;0.60;;;0.60;;
8317;SDS011;4196;48.926;8.964;2022-11-04T01:05:42;0.37;;;0.37;;
8317;SDS011;4196;48.926;8.964;2022-11-04T01:08:29;0.73;;;0.73;;
8317;SDS011;4196;48.926;8.964;2022-11-04T01:11:15;0.70;;;0.70;;
8317;SDS011;4196;48.926;8.964;2022-11-04T01:14:02;2.77;;;0.83;;
8317;SDS011;4196;48.926;8.964;2022-11-04T01:16:49;0.70;;;0.70;;
8317;SDS011;4196;48.926;8.964;2022-11-04T01:19:35;2.77;;;0.70;;
8317;SDS011;4196;48.926;8.964;2022-11-04T01:22:21;0.70;;;0.67;;
8317;SDS011;4196;48.926;8.964;2022-11-04T01:25:08;0.60;;;0.60;;
8317;SDS011;4196;48.926;8.964;2022-11-04T01:27:55;0.60;;;0.60;;
8317;SDS011;4196;48.926;8.964;2022-11-04T01:30:41;0.63;;;0.60;;
8317;SDS011;4196;48.926;8.964;2022-11-04T01:33:27;0.90;;;0.80;;
8317;SDS011;4196;48.926;8.964;2022-11-04T01:36:14;0.50;;;0.50;;
8317;SDS011;4196;48.926;8.964;2022-11-04T01:39:00;2.17;;;0.47;;
8317;SDS011;4196;48.926;8.964;2022-11-04T01:41:47;0.43;;;0.43;;
8317;SDS011;4196;48.926;8.964;2022-11-04T01:44:45;0.63;;;0.63;;
8317;SDS011;4196;48.926;8.964;2022-11-04T01:47:39;1.13;;;1.00;;
8317;SDS011;4196;48.926;8.964;2022-11-04T01:50:29;0.50;;;0.50;;
8317;SDS011;4196;48.926;8.964;2022-11-04T01:53:18;1.10;;;1.00;;
8317;SDS011;4196;48.926;8.964;2022-11-04T01:56:11;0.77;;;0.73;;
8317;SDS011;4196;48.926;8.964;2022-11-04T01:59:01;0.90;;;0.70;;
8317;SDS011;4196;48.926;8.964;2022-11-04T02:01:51;1.03;;;0.80;;
8317;SDS011;4196;48.926;8.964;2022-11-04T02:04:38;2.13;;;0.77;;
8317;SDS011;4196;48.926;8.964;2022-11-04T02:07:25;1.00;;;0.90;;
8317;SDS011;4196;48.926;8.964;2022-11-04T02:10:11;0.70;;;0.70;;
8317;SDS011;4196;48.926;8.964;2022-11-04T02:12:58;1.73;;;0.70;;
8317;SDS011;4196;48.926;8.964;2022-11-04T02:19:06;0.90;;;0.83;;
8317;SDS011;4196;48.926;8.964;2022-11-04T02:37:19;1.10;;;1.00;;
8317;SDS011;4196;48.926;8.964;2022-11-04T02:46:26;1.70;;;0.90;;
8317;SDS011;4196;48.926;8.964;2022-11-04T02:49:27;0.63;;;0.63;;
8317;SDS011;4196;48.926;8.964;2022-11-04T02:52:25;1.77;;;0.70;;
8317;SDS011;4196;48.926;8.964;2022-11-04T02:55:28;2.53;;;0.80;;
8317;SDS011;4196;48.926;8.964;2022-11-04T02:58:24;2.17;;;1.07;;
8317;SDS011;4196;48.926;8.964;2022-11-04T03:01:16;0.97;;;0.80;;
8317;SDS011;4196;48.926;8.964;2022-11-04T03:04:13;1.50;;;0.70;;
8317;SDS011;4196;48.926;8.964;2022-11-04T03:07:03;2.50;;;1.07;;
8317;SDS011;4196;48.926;8.964;2022-11-04T03:10:00;3.33;;;1.03;;
8317;SDS011;4196;48.926;8.964;2022-11-04T03:12:53;0.80;;;0.80;;
8317;SDS011;4196;48.926;8.964;2022-11-04T03:15:59;3.17;;;0.80;;
8317;SDS011;4196;48.926;8.964;2022-11-04T03:22:09;2.60;;;0.80;;
8317;SDS011;4196;48.926;8.964;2022-11-04T03:24:59;1.27;;;0.80;;
8317;SDS011;4196;48.926;8.964;2022-11-04T03:30:44;0.70;;;0.70;;
8317;SDS011;4196;48.926;8.964;2022-11-04T03:33:41;2.33;;;0.80;;
8317;SDS011;4196;48.926;8.964;2022-11-04T03:36:33;1.00;;;0.77;;
8317;SDS011;4196;48.926;8.964;2022-11-04T03:39:19;1.40;;;0.80;;
8317;SDS011;4196;48.926;8.964;2022-11-04T03:42:07;1.70;;;0.80;;
8317;SDS011;4196;48.926;8.964;2022-11-04T03:45:05;1.20;;;0.70;;
8317;SDS011;4196;48.926;8.964;2022-11-04T03:47:53;2.13;;;0.83;;
8317;SDS011;4196;48.926;8.964;2022-11-04T03:50:45;2.63;;;0.87;;
8317;SDS011;4196;48.926;8.964;2022-11-04T03:53:33;1.30;;;0.87;;
8317;SDS011;4196;48.926;8.964;2022-11-04T04:05:06;2.73;;;0.90;;
8317;SDS011;4196;48.926;8.964;2022-11-04T04:11:18;1.57;;;1.07;;
8317;SDS011;4196;48.926;8.964;2022-11-04T04:17:33;4.70;;;0.77;;
8317;SDS011;4196;48.926;8.964;2022-11-04T04:20:25;1.33;;;1.00;;
8317;SDS011;4196;48.926;8.964;2022-11-04T04:23:19;2.83;;;1.07;;
8317;SDS011;4196;48.926;8.964;2022-11-04T04:26:28;1.80;;;0.83;;
8317;SDS011;4196;48.926;8.964;2022-11-04T04:29:36;1.40;;;1.10;;
8317;SDS011;4196;48.926;8.964;2022-11-04T04:32:24;1.77;;;0.87;;
8317;SDS011;4196;48.926;8.964;2022-11-04T04:35:13;3.03;;;1.67;;
8317;SDS011;4196;48.926;8.964;2022-11-04T04:38:26;1.60;;;1.30;;
8317;SDS011;4196;48.926;8.964;2022-11-04T04:41:32;1.10;;;1.00;;
8317;SDS011;4196;48.926;8.964;2022-11-04T04:44:37;0.80;;;0.80;;
8317;SDS011;4196;48.926;8.964;2022-11-04T04:47:45;5.83;;;1.10;;
8317;SDS011;4196;48.926;8.964;2022-11-04T04:50:34;3.10;;;1.30;;
8317;SDS011;4196;48.926;8.964;2022-11-04T04:53:22;1.63;;;1.13;;
8317;SDS011;4196;48.926;8.964;2022-11-04T04:56:08;1.83;;;1.10;;
8317;SDS011;4196;48.926;8.964;2022-11-04T04:58:55;3.73;;;1.00;;
8317;SDS011;4196;48.926;8.964;2022-11-04T05:01:41;2.73;;;0.93;;
8317;SDS011;4196;48.926;8.964;2022-11-04T05:04:28;3.70;;;1.43;;
8317;SDS011;4196;48.926;8.964;2022-11-04T05:07:14;2.57;;;1.50;;
8317;SDS011;4196;48.926;8.964;2022-11-04T05:10:01;2.77;;;1.43;;
8317;SDS011;4196;48.926;8.964;2022-11-04T05:12:48;2.20;;;1.30;;
8317;SDS011;4196;48.926;8.964;2022-11-04T05:15:53;1.60;;;1.40;;
8317;SDS011;4196;48.926;8.964;2022-11-04T05:18:39;1.97;;;1.53;;
8317;SDS011;4196;48.926;8.964;2022-11-04T05:21:25;2.93;;;1.57;;
8317;SDS011;4196;48.926;8.964;2022-11-04T05:24:12;2.10;;;1.50;;
8317;SDS011;4196;48.926;8.964;2022-11-04T05:26:58;1.20;;;1.10;;
8317;SDS011;4196;48.926;8.964;2022-11-04T05:29:44;4.53;;;1.93;;
8317;SDS011;4196;48.926;8.964;2022-11-04T05:32:31;2.83;;;1.40;;
8317;SDS011;4196;48.926;8.964;2022-11-04T05:35:17;1.87;;;1.40;;
8317;SDS011;4196;48.926;8.964;2022-11-04T05:38:04;1.67;;;1.57;;
8317;SDS011;4196;48.926;8.964;2022-11-04T05:40:50;8.03;;;2.27;;
8317;SDS011;4196;48.926;8.964;2022-11-04T05:43:36;2.87;;;1.23;;
8317;SDS011;4196;48.926;8.964;2022-11-04T05:46:23;2.10;;;1.30;;
8317;SDS011;4196;48.926;8.964;2022-11-04T05:49:10;4.50;;;1.23;;
8317;SDS011;4196;48.926;8.964;2022-11-04T05:51:56;2.93;;;1.77;;
8317;SDS011;4196;48.926;8.964;2022-11-04T05:54:42;7.57;;;2.33;;
8317;SDS011;4196;48.926;8.964;2022-11-04T05:57:28;1.97;;;1.77;;
8317;SDS011;4196;48.926;8.964;2022-11-04T06:00:15;1.50;;;1.40;;
8317;SDS011;4196;48.926;8.964;2022-11-04T06:03:01;1.70;;;1.60;;
8317;SDS011;4196;48.926;8.964;2022-11-04T06:05:48;3.17;;;2.10;;
8317;SDS011;4196;48.926;8.964;2022-11-04T06:08:34;3.67;;;2.03;;
8317;SDS011;4196;48.926;8.964;2022-11-04T06:11:24;2.63;;;1.90;;
8317;SDS011;4196;48.926;8.964;2022-11-04T06:14:12;3.53;;;2.23;;
8317;SDS011;4196;48.926;8.964;2022-11-04T06:17:04;6.27;;;2.60;;
8317;SDS011;4196;48.926;8.964;2022-11-04T06:19:50;3.63;;;2.53;;
8317;SDS011;4196;48.926;8.964;2022-11-04T06:22:37;3.53;;;2.27;;
8317;SDS011;4196;48.926;8.964;2022-11-04T06:25:23;3.87;;;2.67;;
8317;SDS011;4196;48.926;8.964;2022-11-04T06:28:09;7.47;;;3.20;;
8317;SDS011;4196;48.926;8.964;2022-11-04T06:30:57;3.93;;;2.50;;
8317;SDS011;4196;48.926;8.964;2022-11-04T06:33:44;4.10;;;2.27;;
8317;SDS011;4196;48.926;8.964;2022-11-04T06:36:31;4.37;;;2.93;;
8317;SDS011;4196;48.926;8.964;2022-11-04T06:39:18;2.80;;;2.30;;
8317;SDS011;4196;48.926;8.964;2022-11-04T06:42:05;3.00;;;2.00;;
8317;SDS011;4196;48.926;8.964;2022-11-04T06:44:51;2.30;;;2.10;;
8317;SDS011;4196;48.926;8.964;2022-11-04T06:47:37;3.70;;;2.40;;
8317;SDS011;4196;48.926;8.964;2022-11-04T06:50:24;6.47;;;2.60;;
8317;SDS011;4196;48.926;8.964;2022-11-04T06:53:10;4.73;;;3.10;;
8317;SDS011;4196;48.926;8.964;2022-11-04T06:56:03;7.10;;;2.37;;
8317;SDS011;4196;48.926;8.964;2022-11-04T06:58:51;3.23;;;1.80;;
8317;SDS011;4196;48.926;8.964;2022-11-04T07:01:38;2.57;;;1.73;;
8317;SDS011;4196;48.926;8.964;2022-11-04T07:04:25;7.67;;;1.97;;
8317;SDS011;4196;48.926;8.964;2022-11-04T07:07:11;1.97;;;1.57;;
8317;SDS011;4196;48.926;8.964;2022-11-04T07:09:58;2.47;;;1.60;;
8317;SDS011;4196;48.926;8.964;2022-11-04T07:12:44;2.73;;;1.40;;
8317;SDS011;4196;48.926;8.964;2022-11-04T07:15:30;15.93;;;2.37;;
8317;SDS011;4196;48.926;8.964;2022-11-04T07:18:18;2.97;;;1.40;;
8317;SDS011;4196;48.926;8.964;2022-11-04T07:21:05;1.63;;;1.20;;
8317;SDS011;4196;48.926;8.964;2022-11-04T07:23:55;0.90;;;0.90;;
8317;SDS011;4196;48.926;8.964;2022-11-04T07:26:42;2.47;;;1.10;;
8317;SDS011;4196;48.926;8.964;2022-11-04T07:29:28;1.43;;;1.17;;
8317;SDS011;4196;48.926;8.964;2022-11-04T07:32:15;3.53;;;1.53;;
8317;SDS011;4196;48.926;8.964;2022-11-04T07:35:02;1.30;;;1.10;;
8317;SDS011;4196;48.926;8.964;2022-11-04T07:37:48;1.37;;;1.10;;
8317;SDS011;4196;48.926;8.964;2022-11-04T07:40:34;2.43;;;1.40;;
8317;SDS011;4196;48.926;8.964;2022-11-04T07:43:20;2.63;;;1.00;;
8317;SDS011;4196;48.926;8.964;2022-11-04T07:46:10;1.23;;;1.13;;
8317;SDS011;4196;48.926;8.964;2022-11-04T07:48:58;1.47;;;0.90;;
8317;SDS011;4196;48.926;8.964;2022-11-04T07:51:44;3.87;;;1.13;;
8317;SDS011;4196;48.926;8.964;2022-11-04T07:54:31;1.03;;;0.90;;
8317;SDS011;4196;48.926;8.964;2022-11-04T07:57:17;3.60;;;1.50;;
8317;SDS011;4196;48.926;8.964;2022-11-04T08:00:04;1.00;;;1.00;;
8317;SDS011;4196;48.926;8.964;2022-11-04T08:02:57;2.33;;;1.30;;
8317;SDS011;4196;48.926;8.964;2022-11-04T08:05:43;1.93;;;1.50;;
8317;SDS011;4196;48.926;8.964;2022-11-04T08:08:30;2.00;;;1.30;;
8317;SDS011;4196;48.926;8.964;2022-11-04T08:11:17;2.00;;;1.20;;
8317;SDS011;4196;48.926;8.964;2022-11-04T08:14:06;4.10;;;1.47;;
8317;SDS011;4196;48.926;8.964;2022-11-04T08:16:53;3.37;;;1.50;;
8317;SDS011;4196;48.926;8.964;2022-11-04T08:19:40;1.47;;;1.37;;
8317;SDS011;4196;48.926;8.964;2022-11-04T08:22:26;1.10;;;1.00;;
8317;SDS011;4196;48.926;8.964;2022-11-04T08:25:18;2.63;;;1.30;;
8317;SDS011;4196;48.926;8.964;2022-11-04T08:28:04;2.80;;;1.40;;
8317;SDS011;4196;48.926;8.964;2022-11-04T08:30:58;1.97;;;1.40;;
8317;SDS011;4196;48.926;8.964;2022-11-04T08:33:49;2.30;;;1.10;;
8317;SDS011;4196;48.926;8.964;2022-11-04T08:36:36;1.70;;;1.10;;
8317;SDS011;4196;48.926;8.964;2022-11-04T08:39:26;1.80;;;1.30;;
8317;SDS011;4196;48.926;8.964;2022-11-04T08:42:12;2.83;;;1.20;;
8317;SDS011;4196;48.926;8.964;2022-11-04T08:44:58;1.67;;;1.40;;
8317;SDS011;4196;48.926;8.964;2022-11-04T08:47:45;2.00;;;1.13;;
8317;SDS011;4196;48.926;8.964;2022-11-04T08:50:31;4.00;;;0.97;;
8317;SDS011;4196;48.926;8.964;2022-11-04T08:53:17;1.53;;;1.10;;
8317;SDS011;4196;48.926;8.964;2022-11-04T08:56:08;1.93;;;1.30;;
8317;SDS011;4196;48.926;8.964;2022-11-04T08:58:59;2.57;;;1.30;;
8317;SDS011;4196;48.926;8.964;2022-11-04T09:01:46;2.13;;;1.27;;
8317;SDS011;4196;48.926;8.964;2022-11-04T09:04:33;1.10;;;1.03;;
8317;SDS011;4196;48.926;8.964;2022-11-04T09:07:19;1.33;;;1.23;;
8317;SDS011;4196;48.926;8.964;2022-11-04T09:10:06;3.50;;;1.27;;
8317;SDS011;4196;48.926;8.964;2022-11-04T09:12:52;2.97;;;1.20;;
8317;SDS011;4196;48.926;8.964;2022-11-04T09:15:38;1.40;;;1.10;;
8317;SDS011;4196;48.926;8.964;2022-11-04T09:18:25;1.43;;;1.10;;
8317;SDS011;4196;48.926;8.964;2022-11-04T09:21:11;2.07;;;1.10;;
8317;SDS011;4196;48.926;8.964;2022-11-04T09:23:58;1.00;;;0.90;;
8317;SDS011;4196;48.926;8.964;2022-11-04T09:26:44;1.43;;;1.00;;
8317;SDS011;4196;48.926;8.964;2022-11-04T09:29:30;1.40;;;0.90;;
8317;SDS011;4196;48.926;8.964;2022-11-04T09:32:18;1.20;;;1.10;;
8317;SDS011;4196;48.926;8.964;2022-11-04T09:35:05;1.60;;;1.13;;
8317;SDS011;4196;48.926;8.964;2022-11-04T09:37:52;2.83;;;1.03;;
8317;SDS011;4196;48.926;8.964;2022-11-04T09:40:39;1.40;;;1.30;;
8317;SDS011;4196;48.926;8.964;2022-11-04T09:46:46;2.23;;;1.10;;
8317;SDS011;4196;48.926;8.964;2022-11-04T09:49:35;1.17;;;1.00;;
8317;SDS011;4196;48.926;8.964;2022-11-04T09:55:23;1.53;;;1.30;;
8317;SDS011;4196;48.926;8.964;2022-11-04T09:58:23;1.87;;;1.27;;
8317;SDS011;4196;48.926;8.964;2022-11-04T10:01:13;1.40;;;1.30;;
8317;SDS011;4196;48.926;8.964;2022-11-04T10:04:13;2.53;;;1.00;;
8317;SDS011;4196;48.926;8.964;2022-11-04T10:17:28;1.03;;;1.00;;
8317;SDS011;4196;48.926;8.964;2022-11-04T10:20:36;1.80;;;1.00;;
8317;SDS011;4196;48.926;8.964;2022-11-04T10:26:54;1.83;;;1.03;;
8317;SDS011;4196;48.926;8.964;2022-11-04T10:29:47;2.83;;;1.10;;
8317;SDS011;4196;48.926;8.964;2022-11-04T10:32:38;4.83;;;1.10;;
8317;SDS011;4196;48.926;8.964;2022-11-04T10:35:35;1.27;;;0.80;;
8317;SDS011;4196;48.926;8.964;2022-11-04T10:44:21;2.93;;;1.20;;
8317;SDS011;4196;48.926;8.964;2022-11-04T10:47:17;2.37;;;1.57;;
8317;SDS011;4196;48.926;8.964;2022-11-04T10:53:27;3.10;;;1.20;;
8317;SDS011;4196;48.926;8.964;2022-11-04T10:59:46;1.93;;;1.00;;
8317;SDS011;4196;48.926;8.964;2022-11-04T11:05:23;1.83;;;1.03;;
8317;SDS011;4196;48.926;8.964;2022-11-04T11:08:14;0.97;;;0.87;;
8317;SDS011;4196;48.926;8.964;2022-11-04T11:11:13;1.43;;;1.00;;
8317;SDS011;4196;48.926;8.964;2022-11-04T11:14:00;4.30;;;1.17;;
8317;SDS011;4196;48.926;8.964;2022-11-04T11:16:47;2.23;;;1.43;;
8317;SDS011;4196;48.926;8.964;2022-11-04T11:19:33;2.03;;;1.10;;
8317;SDS011;4196;48.926;8.964;2022-11-04T11:22:38;3.07;;;1.37;;
8317;SDS011;4196;48.926;8.964;2022-11-04T11:25:29;3.90;;;1.27;;
8317;SDS011;4196;48.926;8.964;2022-11-04T11:28:21;5.00;;;1.43;;
8317;SDS011;4196;48.926;8.964;2022-11-04T11:31:11;2.53;;;2.10;;
8317;SDS011;4196;48.926;8.964;2022-11-04T11:34:16;3.73;;;1.20;;
8317;SDS011;4196;48.926;8.964;2022-11-04T11:37:12;5.63;;;1.37;;
8317;SDS011;4196;48.926;8.964;2022-11-04T11:40:21;3.90;;;1.10;;
8317;SDS011;4196;48.926;8.964;2022-11-04T11:43:43;5.77;;;1.30;;
8317;SDS011;4196;48.926;8.964;2022-11-04T11:46:34;2.53;;;1.40;;
8317;SDS011;4196;48.926;8.964;2022-11-04T11:49:24;6.30;;;1.70;;
8317;SDS011;4196;48.926;8.964;2022-11-04T11:52:23;1.77;;;1.30;;
8317;SDS011;4196;48.926;8.964;2022-11-04T11:58:31;3.87;;;1.67;;
8317;SDS011;4196;48.926;8.964;2022-11-04T12:05:16;5.70;;;1.23;;
8317;SDS011;4196;48.926;8.964;2022-11-04T12:18:31;1.90;;;0.90;;
8317;SDS011;4196;48.926;8.964;2022-11-04T12:21:32;3.27;;;1.23;;
8317;SDS011;4196;48.926;8.964;2022-11-04T12:24:33;1.97;;;0.80;;
8317;SDS011;4196;48.926;8.964;2022-11-04T12:30:24;2.07;;;1.20;;
8317;SDS011;4196;48.926;8.964;2022-11-04T12:45:44;3.17;;;1.67;;
8317;SDS011;4196;48.926;8.964;2022-11-04T12:48:43;4.00;;;1.30;;
8317;SDS011;4196;48.926;8.964;2022-11-04T12:54:41;2.73;;;1.70;;
8317;SDS011;4196;48.926;8.964;2022-11-04T13:00:24;2.20;;;1.40;;
8317;SDS011;4196;48.926;8.964;2022-11-04T13:06:09;4.20;;;1.07;;
8317;SDS011;4196;48.926;8.964;2022-11-04T13:09:12;2.63;;;1.10;;
8317;SDS011;4196;48.926;8.964;2022-11-04T13:12:04;2.10;;;1.00;;
8317;SDS011;4196;48.926;8.964;2022-11-04T13:15:00;2.13;;;1.13;;
8317;SDS011;4196;48.926;8.964;2022-11-04T13:17:51;1.93;;;1.20;;
8317;SDS011;4196;48.926;8.964;2022-11-04T13:20:49;1.63;;;1.10;;
8317;SDS011;4196;48.926;8.964;2022-11-04T13:23:53;4.37;;;1.63;;
8317;SDS011;4196;48.926;8.964;2022-11-04T13:26:43;1.80;;;1.40;;
8317;SDS011;4196;48.926;8.964;2022-11-04T13:29:30;2.53;;;1.13;;
8317;SDS011;4196;48.926;8.964;2022-11-04T13:32:22;1.10;;;0.90;;
8317;SDS011;4196;48.926;8.964;2022-11-04T13:35:20;1.83;;;1.00;;
8317;SDS011;4196;48.926;8.964;2022-11-04T13:38:22;1.57;;;1.10;;
8317;SDS011;4196;48.926;8.964;2022-11-04T13:44:23;1.07;;;0.73;;
8317;SDS011;4196;48.926;8.964;2022-11-04T13:47:16;2.87;;;0.80;;
8317;SDS011;4196;48.926;8.964;2022-11-04T13:50:12;3.47;;;0.93;;
8317;SDS011;4196;48.926;8.964;2022-11-04T13:53:18;0.97;;;0.60;;
8317;SDS011;4196;48.926;8.964;2022-11-04T13:56:04;3.93;;;0.80;;
8317;SDS011;4196;48.926;8.964;2022-11-04T13:59:18;0.67;;;0.60;;
8317;SDS011;4196;48.926;8.964;2022-11-04T14:04:57;2.10;;;0.50;;
8317;SDS011;4196;48.926;8.964;2022-11-04T14:08:13;0.73;;;0.73;;
8317;SDS011;4196;48.926;8.964;2022-11-04T14:13:59;0.30;;;0.30;;
8317;SDS011;4196;48.926;8.964;2022-11-04T14:16:48;2.00;;;0.87;;
8317;SDS011;4196;48.926;8.964;2022-11-04T14:22:48;0.83;;;0.60;;
8317;SDS011;4196;48.926;8.964;2022-11-04T14:25:40;1.30;;;0.97;;
8317;SDS011;4196;48.926;8.964;2022-11-04T14:28:29;1.70;;;0.80;;
8317;SDS011;4196;48.926;8.964;2022-11-04T14:34:27;1.47;;;0.80;;
8317;SDS011;4196;48.926;8.964;2022-11-04T14:37:20;3.40;;;0.97;;
8317;SDS011;4196;48.926;8.964;2022-11-04T14:40:21;5.83;;;2.20;;
8317;SDS011;4196;48.926;8.964;2022-11-04T14:43:18;12.83;;;1.40;;
8317;SDS011;4196;48.926;8.964;2022-11-04T14:46:21;1.17;;;0.77;;
8317;SDS011;4196;48.926;8.964;2022-11-04T14:55:28;4.27;;;1.50;;
8317;SDS011;4196;48.926;8.964;2022-11-04T14:58:25;4.23;;;1.40;;
8317;SDS011;4196;48.926;8.964;2022-11-04T15:01:13;4.63;;;1.10;;
8317;SDS011;4196;48.926;8.964;2022-11-04T15:04:06;4.27;;;1.83;;
8317;SDS011;4196;48.926;8.964;2022-11-04T15:07:00;3.20;;;1.40;;
8317;SDS011;4196;48.926;8.964;2022-11-04T15:09:49;4.77;;;1.70;;
8317;SDS011;4196;48.926;8.964;2022-11-04T15:12:35;3.43;;;1.70;;
8317;SDS011;4196;48.926;8.964;2022-11-04T15:15:40;2.33;;;1.60;;
8317;SDS011;4196;48.926;8.964;2022-11-04T15:18:30;3.73;;;1.70;;
8317;SDS011;4196;48.926;8.964;2022-11-04T15:21:17;1.47;;;1.20;;
8317;SDS011;4196;48.926;8.964;2022-11-04T15:24:04;6.80;;;1.67;;
8317;SDS011;4196;48.926;8.964;2022-11-04T15:26:51;2.87;;;1.10;;
8317;SDS011;4196;48.926;8.964;2022-11-04T15:29:38;2.53;;;0.90;;
8317;SDS011;4196;48.926;8.964;2022-11-04T15:32:25;3.57;;;1.50;;
8317;SDS011;4196;48.926;8.964;2022-11-04T15:35:12;1.30;;;1.10;;
8317;SDS011;4196;48.926;8.964;2022-11-04T15:37:59;1.27;;;1.10;;
8317;SDS011;4196;48.926;8.964;2022-11-04T15:40:48;2.20;;;1.10;;
8317;SDS011;4196;48.926;8.964;2022-11-04T15:43:36;1.40;;;1.00;;
8317;SDS011;4196;48.926;8.964;2022-11-04T15:46:24;2.87;;;1.67;;
8317;SDS011;4196;48.926;8.964;2022-11-04T15:49:17;3.53;;;2.13;;
8317;SDS011;4196;48.926;8.964;2022-11-04T15:52:07;5.33;;;2.40;;
8317;SDS011;4196;48.926;8.964;2022-11-04T15:54:59;4.30;;;1.80;;
8317;SDS011;4196;48.926;8.964;2022-11-04T15:57:46;3.90;;;2.30;;
8317;SDS011;4196;48.926;8.964;2022-11-04T16:00:32;3.33;;;2.13;;
8317;SDS011;4196;48.926;8.964;2022-11-04T16:03:19;5.67;;;2.70;;
8317;SDS011;4196;48.926;8.964;2022-11-04T16:06:08;4.20;;;2.50;;
8317;SDS011;4196;48.926;8.964;2022-11-04T16:08:59;4.93;;;2.47;;
8317;SDS011;4196;48.926;8.964;2022-11-04T16:12:05;2.50;;;1.93;;
8317;SDS011;4196;48.926;8.964;2022-11-04T16:15:00;2.97;;;1.80;;
8317;SDS011;4196;48.926;8.964;2022-11-04T16:17:46;4.47;;;2.63;;
8317;SDS011;4196;48.926;8.964;2022-11-04T16:20:33;5.43;;;2.47;;
8317;SDS011;4196;48.926;8.964;2022-11-04T16:23:21;3.83;;;1.90;;
8317;SDS011;4196;48.926;8.964;2022-11-04T16:26:10;1.57;;;1.47;;
8317;SDS011;4196;48.926;8.964;2022-11-04T16:28:57;3.60;;;1.87;;
8317;SDS011;4196;48.926;8.964;2022-11-04T16:31:44;5.50;;;1.53;;
8317;SDS011;4196;48.926;8.964;2022-11-04T16:34:51;1.70;;;1.47;;
8317;SDS011;4196;48.926;8.964;2022-11-04T16:37:39;4.13;;;1.97;;
8317;SDS011;4196;48.926;8.964;2022-11-04T16:40:25;4.67;;;2.87;;
8317;SDS011;4196;48.926;8.964;2022-11-04T16:43:12;4.33;;;3.20;;
8317;SDS011;4196;48.926;8.964;2022-11-04T16:46:02;3.60;;;2.67;;
8317;SDS011;4196;48.926;8.964;2022-11-04T16:48:49;8.33;;;5.77;;
8317;SDS011;4196;48.926;8.964;2022-11-04T16:51:36;21.23;;;17.07;;
8317;SDS011;4196;48.926;8.964;2022-11-04T16:54:22;8.23;;;6.80;;
8317;SDS011;4196;48.926;8.964;2022-11-04T16:57:10;6.00;;;5.40;;
8317;SDS011;4196;48.926;8.964;2022-11-04T17:04:30;5.03;;;2.60;;
8317;SDS011;4196;48.926;8.964;2022-11-04T17:07:17;5.50;;;3.27;;
8317;SDS011;4196;48.926;8.964;2022-11-04T17:10:04;5.00;;;3.63;;
8317;SDS011;4196;48.926;8.964;2022-11-04T17:13:07;13.00;;;7.03;;
8317;SDS011;4196;48.926;8.964;2022-11-04T17:15:54;7.60;;;3.37;;
8317;SDS011;4196;48.926;8.964;2022-11-04T17:18:41;8.23;;;5.13;;
8317;SDS011;4196;48.926;8.964;2022-11-04T17:21:27;8.63;;;6.03;;
8317;SDS011;4196;48.926;8.964;2022-11-04T17:24:13;6.67;;;4.57;;
8317;SDS011;4196;48.926;8.964;2022-11-04T17:27:00;7.77;;;4.67;;
8317;SDS011;4196;48.926;8.964;2022-11-04T17:29:46;4.83;;;4.07;;
8317;SDS011;4196;48.926;8.964;2022-11-04T17:32:33;5.40;;;3.27;;
8317;SDS011;4196;48.926;8.964;2022-11-04T17:35:19;9.60;;;4.80;;
8317;SDS011;4196;48.926;8.964;2022-11-04T17:38:05;5.63;;;3.60;;
8317;SDS011;4196;48.926;8.964;2022-11-04T17:40:52;4.77;;;2.63;;
8317;SDS011;4196;48.926;8.964;2022-11-04T17:43:57;3.97;;;3.27;;
8317;SDS011;4196;48.926;8.964;2022-11-04T17:46:46;5.33;;;2.40;;
8317;SDS011;4196;48.926;8.964;2022-11-04T17:49:34;2.90;;;2.20;;
8317;SDS011;4196;48.926;8.964;2022-11-04T17:52:22;2.70;;;2.30;;
8317;SDS011;4196;48.926;8.964;2022-11-04T17:55:08;5.37;;;3.43;;
8317;SDS011;4196;48.926;8.964;2022-11-04T17:58:02;8.47;;;6.20;;
8317;SDS011;4196;48.926;8.964;2022-11-04T18:00:48;30.97;;;15.17;;
8317;SDS011;4196;48.926;8.964;2022-11-04T18:03:34;23.30;;;14.13;;
8317;SDS011;4196;48.926;8.964;2022-11-04T18:06:24;16.10;;;10.80;;
8317;SDS011;4196;48.926;8.964;2022-11-04T18:09:11;14.57;;;10.53;;
8317;SDS011;4196;48.926;8.964;2022-11-04T18:12:00;7.33;;;4.63;;
8317;SDS011;4196;48.926;8.964;2022-11-04T18:17:52;4.87;;;4.07;;
8317;SDS011;4196;48.926;8.964;2022-11-04T18:20:39;5.13;;;3.73;;
8317;SDS011;4196;48.926;8.964;2022-11-04T18:23:25;6.23;;;3.87;;
8317;SDS011;4196;48.926;8.964;2022-11-04T18:26:13;7.27;;;5.33;;
8317;SDS011;4196;48.926;8.964;2022-11-04T18:29:00;7.47;;;5.60;;
8317;SDS011;4196;48.926;8.964;2022-11-04T18:31:46;8.80;;;4.47;;
8317;SDS011;4196;48.926;8.964;2022-11-04T18:34:34;16.63;;;4.43;;
8317;SDS011;4196;48.926;8.964;2022-11-04T18:37:21;5.33;;;3.13;;
8317;SDS011;4196;48.926;8.964;2022-11-04T18:40:08;5.47;;;4.07;;
8317;SDS011;4196;48.926;8.964;2022-11-04T18:42:54;4.10;;;3.03;;
8317;SDS011;4196;48.926;8.964;2022-11-04T18:45:41;5.30;;;4.20;;
8317;SDS011;4196;48.926;8.964;2022-11-04T18:48:28;15.63;;;4.63;;
8317;SDS011;4196;48.926;8.964;2022-11-04T18:51:15;6.40;;;4.80;;
8317;SDS011;4196;48.926;8.964;2022-11-04T18:54:04;6.20;;;3.97;;
8317;SDS011;4196;48.926;8.964;2022-11-04T18:56:51;6.23;;;3.70;;
8317;SDS011;4196;48.926;8.964;2022-11-04T18:59:38;6.33;;;3.70;;
8317;SDS011;4196;48.926;8.964;2022-11-04T19:02:24;9.13;;;4.33;;
8317;SDS011;4196;48.926;8.964;2022-11-04T19:05:11;4.47;;;3.67;;
8317;SDS011;4196;48.926;8.964;2022-11-04T19:07:57;4.67;;;3.50;;
8317;SDS011;4196;48.926;8.964;2022-11-04T19:10:44;8.00;;;4.90;;
8317;SDS011;4196;48.926;8.964;2022-11-04T19:13:53;7.67;;;4.77;;
8317;SDS011;4196;48.926;8.964;2022-11-04T19:16:47;8.50;;;5.50;;
8317;SDS011;4196;48.926;8.964;2022-11-04T19:19:33;14.30;;;4.63;;
8317;SDS011;4196;48.926;8.964;2022-11-04T19:22:20;5.27;;;4.63;;
8317;SDS011;4196;48.926;8.964;2022-11-04T19:25:07;10.23;;;5.40;;
8317;SDS011;4196;48.926;8.964;2022-11-04T19:27:54;12.87;;;7.00;;
8317;SDS011;4196;48.926;8.964;2022-11-04T19:31:01;9.97;;;5.73;;
8317;SDS011;4196;48.926;8.964;2022-11-04T19:33:48;7.83;;;5.07;;
8317;SDS011;4196;48.926;8.964;2022-11-04T19:36:35;9.13;;;5.63;;
8317;SDS011;4196;48.926;8.964;2022-11-04T19:39:22;14.27;;;7.53;;
8317;SDS011;4196;48.926;8.964;2022-11-04T19:42:09;10.70;;;7.00;;
8317;SDS011;4196;48.926;8.964;2022-11-04T19:45:15;5.87;;;4.70;;
8317;SDS011;4196;48.926;8.964;2022-11-04T19:48:02;9.40;;;5.27;;
8317;SDS011;4196;48.926;8.964;2022-11-04T19:50:49;6.20;;;4.50;;
8317;SDS011;4196;48.926;8.964;2022-11-04T19:53:35;5.97;;;4.17;;
8317;SDS011;4196;48.926;8.964;2022-11-04T19:56:22;6.97;;;4.30;;
8317;SDS011;4196;48.926;8.964;2022-11-04T19:59:09;6.77;;;4.47;;
8317;SDS011;4196;48.926;8.964;2022-11-04T20:01:55;11.13;;;5.57;;
8317;SDS011;4196;48.926;8.964;2022-11-04T20:04:41;15.13;;;9.07;;
8317;SDS011;4196;48.926;8.964;2022-11-04T20:07:28;9.43;;;6.30;;
8317;SDS011;4196;48.926;8.964;2022-11-04T20:10:14;8.93;;;5.60;;
8317;SDS011;4196;48.926;8.964;2022-11-04T20:13:00;5.77;;;4.30;;